createdAt,value
2024-02-29T00:00:35.721Z,996.72
2024-02-29T00:01:35.644Z,996.69
2024-02-29T00:02:35.553Z,996.71
2024-02-29T00:03:35.587Z,996.67
2024-02-29T00:04:35.585Z,996.70
2024-02-29T00:05:35.533Z,996.73
2024-02-29T00:06:35.548Z,996.72
2024-02-29T00:07:35.527Z,996.75
2024-02-29T00:08:35.544Z,996.72
2024-02-29T00:09:35.570Z,996.73
2024-02-29T00:10:35.514Z,996.74
2024-02-29T00:11:35.501Z,996.80
2024-02-29T00:12:35.559Z,996.84
2024-02-29T00:13:35.517Z,996.74
2024-02-29T00:14:35.504Z,996.77
2024-02-29T00:15:35.517Z,996.75
2024-02-29T00:16:35.461Z,996.74
2024-02-29T00:17:35.487Z,996.72
2024-02-29T00:18:35.490Z,996.73
2024-02-29T00:19:35.449Z,996.76
2024-02-29T00:20:35.431Z,996.79
2024-02-29T00:21:35.456Z,996.76
2024-02-29T00:22:35.449Z,996.69
2024-02-29T00:23:35.454Z,996.75
2024-02-29T00:24:35.402Z,996.79
2024-02-29T00:25:35.535Z,996.73
2024-02-29T00:26:35.390Z,996.72
2024-02-29T00:27:35.423Z,996.73
2024-02-29T00:28:35.409Z,996.75
2024-02-29T00:29:35.368Z,996.74
2024-02-29T00:30:35.415Z,996.70
2024-02-29T00:31:35.361Z,996.74
2024-02-29T00:32:35.559Z,996.68
2024-02-29T00:33:35.369Z,996.68
2024-02-29T00:34:35.337Z,996.71
2024-02-29T00:35:35.326Z,996.66
2024-02-29T00:36:35.419Z,996.72
2024-02-29T00:37:35.350Z,996.71
2024-02-29T00:38:35.299Z,996.70
2024-02-29T00:39:35.312Z,996.66
2024-02-29T00:40:35.286Z,996.65
2024-02-29T00:41:35.311Z,996.67
2024-02-29T00:42:35.307Z,996.62
2024-02-29T00:43:35.271Z,996.67
2024-02-29T00:44:35.257Z,996.64
2024-02-29T00:45:35.274Z,996.74
2024-02-29T00:46:35.269Z,996.64
2024-02-29T00:47:36.265Z,996.66
2024-02-29T00:48:35.266Z,996.63
2024-02-29T00:49:35.230Z,996.65
2024-02-29T00:50:35.286Z,996.60
2024-02-29T00:51:35.304Z,996.62
2024-02-29T00:52:35.210Z,996.65
2024-02-29T00:53:35.198Z,996.58
2024-02-29T00:54:35.235Z,996.63
2024-02-29T00:55:35.204Z,996.61
2024-02-29T00:56:35.205Z,996.59
2024-02-29T00:57:35.208Z,996.61
2024-02-29T00:58:35.160Z,996.57
2024-02-29T00:59:35.149Z,996.55
2024-02-29T01:00:35.209Z,996.55
2024-02-29T01:01:35.227Z,996.58
2024-02-29T01:02:35.133Z,996.56
2024-02-29T01:03:35.521Z,996.56
2024-02-29T01:05:07.059Z,996.49
2024-02-29T01:05:35.107Z,996.60
2024-02-29T01:06:35.128Z,996.56
2024-02-29T01:07:35.102Z,996.54
2024-02-29T01:08:35.088Z,996.50
2024-02-29T01:09:35.142Z,996.53
2024-02-29T01:10:35.072Z,996.50
2024-02-29T01:11:35.075Z,996.49
2024-02-29T01:12:35.134Z,996.51
2024-02-29T01:13:35.051Z,996.48
2024-02-29T01:14:35.061Z,996.45
2024-02-29T01:15:35.064Z,996.50
2024-02-29T01:16:35.039Z,996.45
2024-02-29T01:17:35.073Z,996.38
2024-02-29T01:18:35.073Z,996.41
2024-02-29T01:19:35.036Z,996.39
2024-02-29T01:20:35.009Z,996.41
2024-02-29T01:21:35.086Z,996.30
2024-02-29T01:22:34.997Z,996.34
2024-02-29T01:23:35.011Z,996.42
2024-02-29T01:24:35.030Z,996.39
2024-02-29T01:25:34.961Z,996.37
2024-02-29T01:26:34.949Z,996.38
2024-02-29T01:27:34.968Z,996.35
2024-02-29T01:28:34.956Z,996.33
2024-02-29T01:29:34.924Z,996.31
2024-02-29T01:30:34.971Z,996.29
2024-02-29T01:31:34.945Z,996.25
2024-02-29T01:32:37.660Z,996.30
2024-02-29T01:33:34.955Z,996.18
2024-02-29T01:34:34.885Z,996.21
2024-02-29T01:35:34.896Z,996.21
2024-02-29T01:36:34.894Z,996.16
2024-02-29T01:37:34.894Z,996.14
2024-02-29T01:38:34.861Z,996.18
2024-02-29T01:39:34.854Z,996.14
2024-02-29T01:40:34.838Z,996.04
2024-02-29T01:41:34.837Z,996.08
2024-02-29T01:42:34.952Z,996.07
2024-02-29T01:43:34.817Z,996.10
2024-02-29T01:44:34.810Z,996.10
2024-02-29T01:45:34.866Z,996.07
2024-02-29T01:46:34.799Z,996.07
2024-02-29T01:47:34.873Z,996.05
2024-02-29T01:48:34.830Z,996.01
2024-02-29T01:49:34.793Z,996.02
2024-02-29T01:50:34.783Z,996.07
2024-02-29T01:51:34.823Z,996.02
2024-02-29T01:52:34.790Z,995.88
2024-02-29T01:53:34.953Z,995.96
2024-02-29T01:54:35.774Z,995.88
2024-02-29T01:55:34.721Z,995.93
2024-02-29T01:56:34.748Z,995.88
2024-02-29T01:57:34.763Z,995.86
2024-02-29T01:58:34.716Z,995.85
2024-02-29T01:59:34.762Z,995.80
2024-02-29T02:00:34.700Z,995.87
2024-02-29T02:01:34.977Z,995.83
2024-02-29T02:02:34.709Z,995.85
2024-02-29T02:03:34.717Z,995.77
2024-02-29T02:04:34.686Z,995.80
2024-02-29T02:05:34.656Z,995.81
2024-02-29T02:06:34.741Z,995.74
2024-02-29T02:07:34.652Z,995.73
2024-02-29T02:08:34.628Z,995.76
2024-02-29T02:09:34.669Z,995.83
2024-02-29T02:10:34.623Z,995.75
2024-02-29T02:11:34.649Z,995.76
2024-02-29T02:12:34.691Z,995.74
2024-02-29T02:13:34.592Z,995.78
2024-02-29T02:14:34.587Z,995.73
2024-02-29T02:15:34.677Z,995.73
2024-02-29T02:16:34.607Z,995.71
2024-02-29T02:17:34.583Z,995.72
2024-02-29T02:18:34.613Z,995.78
2024-02-29T02:19:34.583Z,995.72
2024-02-29T02:20:34.574Z,995.66
2024-02-29T02:21:34.590Z,995.73
2024-02-29T02:22:34.520Z,995.65
2024-02-29T02:23:34.519Z,995.63
2024-02-29T02:24:34.602Z,995.65
2024-02-29T02:25:34.528Z,995.64
2024-02-29T02:26:34.494Z,995.60
2024-02-29T02:27:34.522Z,995.56
2024-02-29T02:28:34.487Z,995.61
2024-02-29T02:29:34.478Z,995.52
2024-02-29T02:30:34.559Z,995.57
2024-02-29T02:31:34.458Z,995.53
2024-02-29T02:32:34.462Z,995.53
2024-02-29T02:33:34.453Z,995.52
2024-02-29T02:34:34.489Z,995.59
2024-02-29T02:35:34.465Z,995.59
2024-02-29T02:36:34.450Z,995.60
2024-02-29T02:37:34.415Z,995.57
2024-02-29T02:38:34.422Z,995.61
2024-02-29T02:39:34.442Z,995.63
2024-02-29T02:40:34.418Z,995.61
2024-02-29T02:41:34.391Z,995.56
2024-02-29T02:42:34.423Z,995.59
2024-02-29T02:43:34.373Z,995.56
2024-02-29T02:44:34.400Z,995.54
2024-02-29T02:45:34.417Z,995.52
2024-02-29T02:46:34.353Z,995.59
2024-02-29T02:47:34.386Z,995.55
2024-02-29T02:48:34.363Z,995.52
2024-02-29T02:49:34.350Z,995.58
2024-02-29T02:50:34.410Z,995.46
2024-02-29T02:51:34.378Z,995.47
2024-02-29T02:52:34.302Z,995.43
2024-02-29T02:53:34.329Z,995.47
2024-02-29T02:54:34.339Z,995.49
2024-02-29T02:55:34.292Z,995.48
2024-02-29T02:56:34.275Z,995.48
2024-02-29T02:57:34.293Z,995.46
2024-02-29T02:58:34.296Z,995.36
2024-02-29T02:59:34.270Z,995.35
2024-02-29T03:00:34.286Z,995.36
2024-02-29T03:01:34.274Z,995.35
2024-02-29T03:02:34.234Z,995.39
2024-02-29T03:03:34.278Z,995.37
2024-02-29T03:04:34.218Z,995.39
2024-02-29T03:05:34.210Z,995.39
2024-02-29T03:06:34.266Z,995.35
2024-02-29T03:07:34.226Z,995.34
2024-02-29T03:08:34.216Z,995.34
2024-02-29T03:09:34.280Z,995.37
2024-02-29T03:10:34.180Z,995.37
2024-02-29T03:11:34.222Z,995.33
2024-02-29T03:12:34.226Z,995.35
2024-02-29T03:13:34.155Z,995.33
2024-02-29T03:14:34.177Z,995.35
2024-02-29T03:15:34.186Z,995.29
2024-02-29T03:16:34.463Z,995.37
2024-02-29T03:17:34.228Z,995.34
2024-02-29T03:18:34.136Z,995.29
2024-02-29T03:19:34.113Z,995.29
2024-02-29T03:20:34.107Z,995.29
2024-02-29T03:21:34.236Z,995.32
2024-02-29T03:22:34.113Z,995.28
2024-02-29T03:23:34.099Z,995.24
2024-02-29T03:24:34.118Z,995.31
2024-02-29T03:25:34.082Z,995.30
2024-02-29T03:26:34.086Z,995.24
2024-02-29T03:27:34.116Z,995.18
2024-02-29T03:28:34.044Z,995.22
2024-02-29T03:29:34.043Z,995.22
2024-02-29T03:30:34.065Z,995.27
2024-02-29T03:31:34.052Z,995.23
2024-02-29T03:32:34.044Z,995.27
2024-02-29T03:33:34.037Z,995.25
2024-02-29T03:34:34.002Z,995.23
2024-02-29T03:35:34.006Z,995.23
2024-02-29T03:36:34.035Z,995.17
2024-02-29T03:37:33.978Z,995.21
2024-02-29T03:38:33.971Z,995.14
2024-02-29T03:39:34.014Z,995.10
2024-02-29T03:40:33.984Z,995.09
2024-02-29T03:41:33.983Z,995.11
2024-02-29T03:42:33.983Z,995.10
2024-02-29T03:43:33.945Z,995.10
2024-02-29T03:44:33.939Z,995.05
2024-02-29T03:45:34.007Z,995.06
2024-02-29T03:46:33.912Z,995.02
2024-02-29T03:47:33.936Z,995.05
2024-02-29T03:48:33.997Z,995.11
2024-02-29T03:49:33.893Z,995.02
2024-02-29T03:50:33.909Z,995.03
2024-02-29T03:51:33.911Z,995.02
2024-02-29T03:52:33.876Z,994.97
2024-02-29T03:53:33.869Z,994.98
2024-02-29T03:54:33.901Z,994.94
2024-02-29T03:55:33.869Z,994.94
2024-02-29T03:56:33.837Z,994.96
2024-02-29T03:57:33.840Z,994.92
2024-02-29T03:58:33.823Z,994.92
2024-02-29T03:59:33.847Z,994.94
2024-02-29T04:00:33.845Z,994.84
2024-02-29T04:01:33.889Z,994.80
2024-02-29T04:02:33.796Z,994.85
2024-02-29T04:03:33.802Z,994.87
2024-02-29T04:04:33.810Z,994.85
2024-02-29T04:05:33.763Z,994.86
2024-02-29T04:06:33.782Z,994.84
2024-02-29T04:07:33.757Z,994.91
2024-02-29T04:08:33.744Z,994.83
2024-02-29T04:09:33.817Z,994.85
2024-02-29T04:10:33.737Z,994.92
2024-02-29T04:11:33.723Z,994.87
2024-02-29T04:12:33.756Z,994.85
2024-02-29T04:13:33.730Z,994.85
2024-02-29T04:14:33.729Z,994.76
2024-02-29T04:15:33.741Z,994.84
2024-02-29T04:16:33.682Z,994.82
2024-02-29T04:17:33.916Z,994.78
2024-02-29T04:18:33.817Z,994.80
2024-02-29T04:19:33.669Z,994.71
2024-02-29T04:20:33.654Z,994.73
2024-02-29T04:21:33.693Z,994.74
2024-02-29T04:22:33.645Z,994.74
2024-02-29T04:23:33.668Z,994.79
2024-02-29T04:24:33.658Z,994.74
2024-02-29T04:25:33.625Z,994.75
2024-02-29T04:26:33.617Z,994.75
2024-02-29T04:27:33.715Z,994.73
2024-02-29T04:28:33.677Z,994.76
2024-02-29T04:29:33.623Z,994.67
2024-02-29T04:30:33.644Z,994.66
2024-02-29T04:31:33.600Z,994.67
2024-02-29T04:32:33.611Z,994.70
2024-02-29T04:33:33.610Z,994.66
2024-02-29T04:34:33.624Z,994.63
2024-02-29T04:35:33.560Z,994.65
2024-02-29T04:36:33.641Z,994.70
2024-02-29T04:37:33.581Z,994.65
2024-02-29T04:38:33.525Z,994.64
2024-02-29T04:39:33.553Z,994.60
2024-02-29T04:40:33.522Z,994.60
2024-02-29T04:41:33.529Z,994.64
2024-02-29T04:42:33.552Z,994.59
2024-02-29T04:43:33.493Z,994.51
2024-02-29T04:44:33.478Z,994.58
2024-02-29T04:45:33.483Z,994.57
2024-02-29T04:46:33.494Z,994.61
2024-02-29T04:47:33.511Z,994.56
2024-02-29T04:48:33.474Z,994.53
2024-02-29T04:49:33.443Z,994.52
2024-02-29T04:50:33.448Z,994.52
2024-02-29T04:51:33.482Z,994.54
2024-02-29T04:52:33.430Z,994.50
2024-02-29T04:53:33.412Z,994.53
2024-02-29T04:54:33.451Z,994.53
2024-02-29T04:55:33.396Z,994.44
2024-02-29T04:56:33.427Z,994.49
2024-02-29T04:57:33.385Z,994.47
2024-02-29T04:58:33.394Z,994.46
2024-02-29T04:59:33.378Z,994.41
2024-02-29T05:00:33.453Z,994.45
2024-02-29T05:01:33.492Z,994.42
2024-02-29T05:02:33.346Z,994.41
2024-02-29T05:03:33.400Z,994.38
2024-02-29T05:04:33.332Z,994.39
2024-02-29T05:05:33.356Z,994.38
2024-02-29T05:06:33.404Z,994.43
2024-02-29T05:07:33.314Z,994.37
2024-02-29T05:08:33.306Z,994.35
2024-02-29T05:09:33.315Z,994.36
2024-02-29T05:10:33.323Z,994.34
2024-02-29T05:11:35.053Z,994.31
2024-02-29T05:12:33.309Z,994.32
2024-02-29T05:13:33.285Z,994.41
2024-02-29T05:14:33.286Z,994.36
2024-02-29T05:15:33.295Z,994.38
2024-02-29T05:16:33.261Z,994.32
2024-02-29T05:17:33.272Z,994.41
2024-02-29T05:18:33.261Z,994.35
2024-02-29T05:19:33.253Z,994.31
2024-02-29T05:20:33.227Z,994.29
2024-02-29T05:21:33.227Z,994.33
2024-02-29T05:22:35.238Z,994.25
2024-02-29T05:23:33.229Z,994.31
2024-02-29T05:24:33.251Z,994.28
2024-02-29T05:25:33.182Z,994.29
2024-02-29T05:26:33.190Z,994.28
2024-02-29T05:27:33.197Z,994.27
2024-02-29T05:28:33.187Z,994.33
2024-02-29T05:29:33.188Z,994.32
2024-02-29T05:30:33.131Z,994.33
2024-02-29T05:31:34.144Z,994.25
2024-02-29T05:32:33.151Z,994.28
2024-02-29T05:33:33.242Z,994.32
2024-02-29T05:34:33.131Z,994.29
2024-02-29T05:35:33.113Z,994.25
2024-02-29T05:36:33.275Z,994.22
2024-02-29T05:37:33.105Z,994.24
2024-02-29T05:38:33.124Z,994.19
2024-02-29T05:39:33.146Z,994.23
2024-02-29T05:40:33.142Z,994.15
2024-02-29T05:41:33.065Z,994.18
2024-02-29T05:42:33.133Z,994.13
2024-02-29T05:43:35.512Z,994.10
2024-02-29T05:44:34.044Z,994.07
2024-02-29T05:45:33.069Z,994.12
2024-02-29T05:46:33.038Z,994.12
2024-02-29T05:47:33.100Z,994.11
2024-02-29T05:48:33.036Z,994.04
2024-02-29T05:49:33.029Z,994.13
2024-02-29T05:50:34.536Z,994.07
2024-02-29T05:51:34.044Z,994.10
2024-02-29T05:52:33.027Z,994.12
2024-02-29T05:53:32.990Z,994.07
2024-02-29T05:54:33.031Z,994.09
2024-02-29T05:55:32.959Z,994.11
2024-02-29T05:56:32.991Z,994.04
2024-02-29T05:57:32.989Z,994.09
2024-02-29T05:58:33.028Z,994.04
2024-02-29T05:59:32.940Z,994.02
2024-02-29T06:00:33.043Z,994.05
2024-02-29T06:01:32.993Z,994.05
2024-02-29T06:02:32.913Z,994.12
2024-02-29T06:03:32.949Z,994.02
2024-02-29T06:04:32.906Z,994.09
2024-02-29T06:05:32.907Z,994.05
2024-02-29T06:06:32.919Z,994.02
2024-02-29T06:07:32.881Z,994.08
2024-02-29T06:08:32.870Z,994.11
2024-02-29T06:09:32.892Z,994.09
2024-02-29T06:10:32.874Z,994.11
2024-02-29T06:11:32.908Z,994.09
2024-02-29T06:12:32.888Z,994.10
2024-02-29T06:13:32.843Z,994.14
2024-02-29T06:14:32.827Z,994.07
2024-02-29T06:15:32.852Z,994.06
2024-02-29T06:16:32.805Z,994.14
2024-02-29T06:17:32.849Z,994.14
2024-02-29T06:18:32.859Z,994.15
2024-02-29T06:19:32.788Z,994.22
2024-02-29T06:20:32.805Z,994.12
2024-02-29T06:21:32.876Z,994.09
2024-02-29T06:22:32.775Z,994.15
2024-02-29T06:23:32.787Z,994.10
2024-02-29T06:24:32.805Z,994.02
2024-02-29T06:25:32.770Z,994.09
2024-02-29T06:26:32.811Z,994.11
2024-02-29T06:27:32.783Z,994.13
2024-02-29T06:28:32.827Z,994.08
2024-02-29T06:29:32.735Z,994.04
2024-02-29T06:30:33.026Z,993.97
2024-02-29T06:31:32.707Z,994.00
2024-02-29T06:32:32.709Z,994.02
2024-02-29T06:33:32.732Z,994.05
2024-02-29T06:34:32.716Z,994.02
2024-02-29T06:35:32.683Z,994.10
2024-02-29T06:36:32.690Z,993.99
2024-02-29T06:37:32.703Z,994.05
2024-02-29T06:38:32.665Z,994.07
2024-02-29T06:39:32.694Z,994.06
2024-02-29T06:40:32.657Z,994.08
2024-02-29T06:41:32.631Z,994.08
2024-02-29T06:42:32.629Z,994.12
2024-02-29T06:43:33.435Z,994.09
2024-02-29T06:44:32.665Z,993.97
2024-02-29T06:45:32.620Z,993.98
2024-02-29T06:46:32.593Z,993.95
2024-02-29T06:47:32.605Z,993.93
2024-02-29T06:48:32.608Z,993.95
2024-02-29T06:49:32.563Z,994.00
2024-02-29T06:50:32.566Z,993.96
2024-02-29T06:51:32.553Z,994.02
2024-02-29T06:52:32.548Z,994.03
2024-02-29T06:53:32.578Z,994.03
2024-02-29T06:54:32.537Z,994.11
2024-02-29T06:55:32.519Z,994.02
2024-02-29T06:56:32.521Z,994.02
2024-02-29T06:57:32.535Z,994.01
2024-02-29T06:58:32.520Z,994.02
2024-02-29T06:59:32.497Z,993.98
2024-02-29T07:00:32.484Z,994.02
2024-02-29T07:01:32.565Z,994.01
2024-02-29T07:02:32.507Z,994.03
2024-02-29T07:03:32.484Z,994.05
2024-02-29T07:04:32.460Z,994.02
2024-02-29T07:06:05.082Z,994.05
2024-02-29T07:06:32.439Z,994.03
2024-02-29T07:07:32.453Z,994.03
2024-02-29T07:08:32.431Z,993.99
2024-02-29T07:09:32.416Z,994.04
2024-02-29T07:10:32.439Z,993.98
2024-02-29T07:11:32.454Z,993.99
2024-02-29T07:12:32.416Z,994.01
2024-02-29T07:13:32.389Z,993.94
2024-02-29T07:14:32.392Z,993.98
2024-02-29T07:15:32.366Z,993.90
2024-02-29T07:16:32.397Z,993.93
2024-02-29T07:17:32.411Z,993.88
2024-02-29T07:18:32.360Z,993.84
2024-02-29T07:19:32.353Z,993.87
2024-02-29T07:20:32.331Z,993.85
2024-02-29T07:21:32.339Z,993.91
2024-02-29T07:22:32.312Z,993.89
2024-02-29T07:23:32.308Z,993.92
2024-02-29T07:24:32.303Z,993.85
2024-02-29T07:25:32.309Z,993.91
2024-02-29T07:26:32.319Z,993.90
2024-02-29T07:27:32.269Z,993.85
2024-02-29T07:28:32.272Z,993.89
2024-02-29T07:29:32.258Z,993.84
2024-02-29T07:30:32.372Z,993.84
2024-02-29T07:31:32.261Z,993.85
2024-02-29T07:32:32.250Z,993.86
2024-02-29T07:33:32.230Z,993.89
2024-02-29T07:34:32.235Z,993.88
2024-02-29T07:35:32.270Z,993.88
2024-02-29T07:36:32.198Z,993.84
2024-02-29T07:37:32.196Z,993.81
2024-02-29T07:38:32.195Z,993.84
2024-02-29T07:39:32.206Z,993.84
2024-02-29T07:40:32.195Z,993.86
2024-02-29T07:41:32.161Z,993.84
2024-02-29T07:42:32.243Z,993.83
2024-02-29T07:43:32.180Z,993.82
2024-02-29T07:44:32.165Z,993.86
2024-02-29T07:45:32.123Z,993.83
2024-02-29T07:46:32.115Z,993.80
2024-02-29T07:47:32.134Z,993.83
2024-02-29T07:48:32.146Z,993.75
2024-02-29T07:49:32.120Z,993.83
2024-02-29T07:50:32.085Z,993.77
2024-02-29T07:51:32.087Z,993.74
2024-02-29T07:52:32.080Z,993.74
2024-02-29T07:53:32.104Z,993.70
2024-02-29T07:54:32.062Z,993.78
2024-02-29T07:55:32.053Z,993.71
2024-02-29T07:56:32.037Z,993.72
2024-02-29T07:57:32.043Z,993.76
2024-02-29T07:58:32.056Z,993.74
2024-02-29T07:59:32.011Z,993.68
2024-02-29T08:00:32.018Z,993.69
2024-02-29T08:01:32.067Z,993.67
2024-02-29T08:02:32.014Z,993.63
2024-02-29T08:03:32.020Z,993.68
2024-02-29T08:04:31.982Z,993.68
2024-02-29T08:05:31.973Z,993.64
2024-02-29T08:06:31.971Z,993.64
2024-02-29T08:07:31.985Z,993.58
2024-02-29T08:08:31.948Z,993.59
2024-02-29T08:09:31.935Z,993.70
2024-02-29T08:10:31.930Z,993.68
2024-02-29T08:11:32.979Z,993.62
2024-02-29T08:12:31.945Z,993.57
2024-02-29T08:13:31.918Z,993.61
2024-02-29T08:14:31.900Z,993.54
2024-02-29T08:15:31.895Z,993.56
2024-02-29T08:16:31.920Z,993.54
2024-02-29T08:17:31.928Z,993.54
2024-02-29T08:18:31.962Z,993.57
2024-02-29T08:19:31.869Z,993.49
2024-02-29T08:20:31.859Z,993.51
2024-02-29T08:21:31.891Z,993.48
2024-02-29T08:22:31.875Z,993.51
2024-02-29T08:23:31.829Z,993.43
2024-02-29T08:24:31.826Z,993.56
2024-02-29T08:25:31.816Z,993.49
2024-02-29T08:26:31.834Z,993.46
2024-02-29T08:27:31.800Z,993.49
2024-02-29T08:28:31.799Z,993.46
2024-02-29T08:29:31.802Z,993.54
2024-02-29T08:30:31.796Z,993.52
2024-02-29T08:31:31.828Z,993.49
2024-02-29T08:32:31.811Z,993.46
2024-02-29T08:33:31.759Z,993.51
2024-02-29T08:34:31.738Z,993.46
2024-02-29T08:35:31.788Z,993.43
2024-02-29T08:36:31.755Z,993.44
2024-02-29T08:37:31.724Z,993.43
2024-02-29T08:38:31.722Z,993.41
2024-02-29T08:39:31.718Z,993.46
2024-02-29T08:40:31.749Z,993.40
2024-02-29T08:41:31.692Z,993.44
2024-02-29T08:42:31.687Z,993.41
2024-02-29T08:43:31.686Z,993.44
2024-02-29T08:44:31.662Z,993.40
2024-02-29T08:45:32.693Z,993.45
2024-02-29T08:46:31.709Z,993.41
2024-02-29T08:47:31.673Z,993.33
2024-02-29T08:48:31.628Z,993.38
2024-02-29T08:49:31.684Z,993.40
2024-02-29T08:50:31.753Z,993.41
2024-02-29T08:51:31.616Z,993.39
2024-02-29T08:52:31.654Z,993.41
2024-02-29T08:53:31.600Z,993.33
2024-02-29T08:54:31.612Z,993.36
2024-02-29T08:55:31.671Z,993.35
2024-02-29T08:56:31.615Z,993.33
2024-02-29T08:57:31.564Z,993.39
2024-02-29T08:58:31.585Z,993.37
2024-02-29T08:59:31.577Z,993.27
2024-02-29T09:00:31.544Z,993.28
2024-02-29T09:01:31.590Z,993.30
2024-02-29T09:02:31.538Z,993.29
2024-02-29T09:03:31.558Z,993.35
2024-02-29T09:04:31.542Z,993.35
2024-02-29T09:05:31.505Z,993.32
2024-02-29T09:06:40.847Z,993.34
2024-02-29T09:07:33.520Z,993.32
2024-02-29T09:08:31.525Z,993.29
2024-02-29T09:09:31.484Z,993.29
2024-02-29T09:10:31.523Z,993.27
2024-02-29T09:11:31.478Z,993.29
2024-02-29T09:12:31.499Z,993.28
2024-02-29T09:13:35.625Z,993.27
2024-02-29T09:14:31.438Z,993.23
2024-02-29T09:15:31.438Z,993.21
2024-02-29T09:16:31.443Z,993.17
2024-02-29T09:17:31.463Z,993.17
2024-02-29T09:18:31.696Z,993.15
2024-02-29T09:19:31.439Z,993.14
2024-02-29T09:20:31.392Z,993.17
2024-02-29T09:21:31.385Z,993.16
2024-02-29T09:22:31.416Z,993.05
2024-02-29T09:23:31.365Z,993.16
2024-02-29T09:24:31.366Z,993.02
2024-02-29T09:25:31.355Z,993.13
2024-02-29T09:26:31.338Z,993.11
2024-02-29T09:27:31.388Z,993.00
2024-02-29T09:28:31.329Z,993.00
2024-02-29T09:29:34.180Z,992.99
2024-02-29T09:30:31.310Z,992.94
2024-02-29T09:31:31.375Z,992.96
2024-02-29T09:32:31.344Z,992.94
2024-02-29T09:33:31.297Z,992.97
2024-02-29T09:34:32.773Z,993.00
2024-02-29T09:35:31.295Z,992.95
2024-02-29T09:36:31.291Z,992.94
2024-02-29T09:37:31.329Z,992.94
2024-02-29T09:38:31.274Z,992.88
2024-02-29T09:39:31.240Z,992.83
2024-02-29T09:40:41.488Z,992.86
2024-02-29T09:42:33.214Z,992.89
2024-02-29T09:43:31.214Z,992.84
2024-02-29T09:44:31.222Z,992.78
2024-02-29T09:45:31.243Z,992.81
2024-02-29T09:46:31.214Z,992.76
2024-02-29T09:47:31.293Z,992.77
2024-02-29T09:48:31.181Z,992.76
2024-02-29T09:49:31.160Z,992.72
2024-02-29T09:50:31.220Z,992.71
2024-02-29T09:51:31.157Z,992.65
2024-02-29T09:52:31.165Z,992.73
2024-02-29T09:53:31.152Z,992.74
2024-02-29T09:54:31.127Z,992.69
2024-02-29T09:55:31.165Z,992.68
2024-02-29T09:56:31.110Z,992.66
2024-02-29T09:57:31.104Z,992.57
2024-02-29T09:58:31.098Z,992.64
2024-02-29T09:59:31.130Z,992.64
2024-02-29T10:00:31.109Z,992.59
2024-02-29T10:01:31.225Z,992.60
2024-02-29T10:02:31.086Z,992.59
2024-02-29T10:03:31.061Z,992.60
2024-02-29T10:04:31.100Z,992.57
2024-02-29T10:05:31.045Z,992.54
2024-02-29T10:06:31.050Z,992.57
2024-02-29T10:07:31.030Z,992.53
2024-02-29T10:08:31.027Z,992.54
2024-02-29T10:09:31.040Z,992.55
2024-02-29T10:10:31.099Z,992.51
2024-02-29T10:11:31.114Z,992.53
2024-02-29T10:12:30.986Z,992.45
2024-02-29T10:13:31.061Z,992.41
2024-02-29T10:14:31.002Z,992.54
2024-02-29T10:15:30.973Z,992.43
2024-02-29T10:16:31.561Z,992.45
2024-02-29T10:17:31.224Z,992.40
2024-02-29T10:18:30.971Z,992.41
2024-02-29T10:19:30.950Z,992.34
2024-02-29T10:20:30.926Z,992.35
2024-02-29T10:21:30.920Z,992.33
2024-02-29T10:22:30.947Z,992.35
2024-02-29T10:23:30.927Z,992.30
2024-02-29T10:24:30.896Z,992.32
2024-02-29T10:25:30.935Z,992.30
2024-02-29T10:26:30.880Z,992.39
2024-02-29T10:27:30.934Z,992.27
2024-02-29T10:28:30.897Z,992.38
2024-02-29T10:29:30.897Z,992.31
2024-02-29T10:30:30.890Z,992.23
2024-02-29T10:31:30.844Z,992.33
2024-02-29T10:32:30.885Z,992.27
2024-02-29T10:33:30.821Z,992.29
2024-02-29T10:34:30.854Z,992.19
2024-02-29T10:35:30.831Z,992.22
2024-02-29T10:36:30.804Z,992.16
2024-02-29T10:37:30.813Z,992.12
2024-02-29T10:38:30.792Z,992.14
2024-02-29T10:39:30.791Z,992.09
2024-02-29T10:40:30.855Z,992.06
2024-02-29T10:41:30.757Z,992.09
2024-02-29T10:42:31.908Z,992.01
2024-02-29T10:43:30.747Z,992.01
2024-02-29T10:44:30.734Z,991.96
2024-02-29T10:45:30.732Z,992.02
2024-02-29T10:46:30.749Z,992.02
2024-02-29T10:47:30.749Z,991.93
2024-02-29T10:48:30.698Z,991.91
2024-02-29T10:49:30.728Z,991.94
2024-02-29T10:50:30.692Z,991.88
2024-02-29T10:51:30.722Z,991.95
2024-02-29T10:52:30.746Z,991.91
2024-02-29T10:53:30.672Z,991.86
2024-02-29T10:54:30.663Z,991.86
2024-02-29T10:55:30.726Z,991.79
2024-02-29T10:56:30.733Z,991.79
2024-02-29T10:57:30.636Z,991.78
2024-02-29T10:58:30.629Z,991.76
2024-02-29T10:59:30.620Z,991.67
2024-02-29T11:00:30.646Z,991.68
2024-02-29T11:01:30.666Z,991.70
2024-02-29T11:02:30.601Z,991.68
2024-02-29T11:03:30.605Z,991.62
2024-02-29T11:04:30.639Z,991.60
2024-02-29T11:05:30.620Z,991.63
2024-02-29T11:06:30.569Z,991.59
2024-02-29T11:07:30.576Z,991.52
2024-02-29T11:08:30.547Z,991.58
2024-02-29T11:09:30.543Z,991.49
2024-02-29T11:10:30.582Z,991.50
2024-02-29T11:11:30.556Z,991.49
2024-02-29T11:12:30.547Z,991.45
2024-02-29T11:13:30.596Z,991.45
2024-02-29T11:14:30.512Z,991.40
2024-02-29T11:15:30.511Z,991.41
2024-02-29T11:16:30.578Z,991.39
2024-02-29T11:17:30.552Z,991.33
2024-02-29T11:18:30.457Z,991.42
2024-02-29T11:19:35.088Z,991.32
2024-02-29T11:20:32.801Z,991.27
2024-02-29T11:21:31.447Z,991.34
2024-02-29T11:22:30.432Z,991.39
2024-02-29T11:23:30.436Z,991.27
2024-02-29T11:24:30.469Z,991.29
2024-02-29T11:25:30.633Z,991.27
2024-02-29T11:26:30.406Z,991.19
2024-02-29T11:27:30.394Z,991.29
2024-02-29T11:28:30.432Z,991.22
2024-02-29T11:29:30.403Z,991.23
2024-02-29T11:30:30.367Z,991.23
2024-02-29T11:31:30.372Z,991.16
2024-02-29T11:32:30.465Z,991.11
2024-02-29T11:33:30.417Z,991.06
2024-02-29T11:34:30.395Z,991.03
2024-02-29T11:35:30.359Z,990.98
2024-02-29T11:36:30.345Z,990.93
2024-02-29T11:37:33.824Z,990.99
2024-02-29T11:38:36.507Z,990.92
2024-02-29T11:39:32.307Z,990.89
2024-02-29T11:40:30.296Z,990.91
2024-02-29T11:41:30.293Z,990.89
2024-02-29T11:42:30.297Z,990.87
2024-02-29T11:43:30.365Z,990.85
2024-02-29T11:44:30.258Z,990.82
2024-02-29T11:45:30.243Z,990.77
2024-02-29T11:46:30.335Z,990.71
2024-02-29T11:47:30.307Z,990.73
2024-02-29T11:48:30.217Z,990.76
2024-02-29T11:49:30.320Z,990.73
2024-02-29T11:50:30.204Z,990.72
2024-02-29T11:51:30.194Z,990.73
2024-02-29T11:52:30.209Z,990.64
2024-02-29T11:53:30.184Z,990.54
2024-02-29T11:54:30.177Z,990.57
2024-02-29T11:55:30.373Z,990.60
2024-02-29T11:56:31.185Z,990.60
2024-02-29T11:57:30.182Z,990.59
2024-02-29T11:58:30.168Z,990.57
2024-02-29T11:59:30.162Z,990.54
2024-02-29T12:00:30.158Z,990.55
2024-02-29T12:01:30.239Z,990.50
2024-02-29T12:02:30.131Z,990.47
2024-02-29T12:03:30.170Z,990.46
2024-02-29T12:04:30.132Z,990.40
2024-02-29T12:05:30.085Z,990.40
2024-02-29T12:06:30.098Z,990.45
2024-02-29T12:07:30.101Z,990.34
2024-02-29T12:08:30.065Z,990.34
2024-02-29T12:09:30.042Z,990.27
2024-02-29T12:10:30.277Z,990.27
2024-02-29T12:11:30.149Z,990.29
2024-02-29T12:12:30.046Z,990.26
2024-02-29T12:13:30.048Z,990.24
2024-02-29T12:14:30.061Z,990.28
2024-02-29T12:15:30.035Z,990.24
2024-02-29T12:16:30.074Z,990.19
2024-02-29T12:17:30.029Z,990.19
2024-02-29T12:18:29.984Z,990.21
2024-02-29T12:19:30.031Z,990.17
2024-02-29T12:20:30.010Z,990.22
2024-02-29T12:21:29.970Z,990.12
2024-02-29T12:22:30.005Z,990.15
2024-02-29T12:23:29.958Z,990.20
2024-02-29T12:24:29.931Z,990.14
2024-02-29T12:25:30.008Z,990.13
2024-02-29T12:26:29.913Z,990.14
2024-02-29T12:27:29.922Z,990.08
2024-02-29T12:28:30.023Z,990.06
2024-02-29T12:29:29.911Z,989.99